ADDS METAR Data INFO
IDs: Format: Raw Decoded Include TAF

Data at: 0630 UTC 15 Dec 2017

KBAK 150245Z 00000KT 10SM SKC M04/M08 A3011 RMK LAST
KBAK 150145Z 00000KT 10SM SKC M04/M10 A3010
KBAK 150045Z 00000KT 10SM SKC M04/M09 A3009
KBAK 142345Z 00000KT 10SM SKC M04/M10 A3010
KBAK 142245Z 00000KT 10SM SKC M03/M11 A3009
KBAK 142145Z 06004KT 10SM SKC M03/M12 A3008
KBAK 142045Z 00000KT 10SM SKC M02/M12 A3006
KBAK 141945Z 03004KT 10SM SKC M02/M11 A3005
KBAK 141845Z 35006KT 10SM SCT026 M03/M11 A3006
KBAK 141745Z 02008KT 10SM SCT026 M02/M11 A3006
KBAK 141645Z 01008KT 10SM SKC M03/M11 A3007
KBAK 141545Z 36008KT 10SM SKC M03/M11 A3006
KBAK 141459Z 03009KT 10SM SKC M03/M11 A3004
KBAK 141345Z 01010KT 10SM SKC M04/M12 A2999
KBAK 141255Z 03011KT 10SM OVC030 M03/M11 A2997
KBAK 141145Z 02011KT 10SM OVC028 M02/M09 A2994
KBAK 141130Z 01009KT 10SM OVC028 M02/M09 A2993
KBAK 140255Z 29017G34KT 7SM SCT028 BKN035 OVC041 04/M03 A2959 RMK LAST
KBAK 140254Z COR 29020G29KT 10SM OVC028 04/M04 A2959 RMK LAST
KBAK 140154Z 29021G32KT 7SM -RA OVC027 04/M02 A2955
KBAK 140150Z 29017G34KT 7SM SCT028 BKN035 OVC041 04/M03 A2959 RMK LAST
KBAK 140054Z 29017G30KT 7SM -RA BKN030 OVC050 05/M01 A2952
KBAK 140046Z 29021G34KT 10SM SCT038 OVC045 07/M03 A2950
KBAK 132348Z 22015KT 10SM OVC050 06/M08 A2946
KBAK 132257Z 22011KT 10SM OVC050 05/M08 A2946
KBAK 132154Z 23013G22KT 10SM OVC050 05/M09 A2947
KBAK 132045Z 23018G25KT SCT044 BKN070 BKN090 04/11 A2948
KBAK 131945Z 21020G26KT 10SM OVC100 04/M14 A2950
KBAK 131845Z 18022G32KT 10SM BKN095 03/M16 A2949